createdAt,value
2019-04-16T00:01:14.899Z,12.80
2019-04-16T00:03:44.296Z,12.80
2019-04-16T00:06:20.827Z,12.80
2019-04-16T00:08:57.243Z,12.80
2019-04-16T00:11:43.275Z,12.70
2019-04-16T00:14:19.529Z,12.70
2019-04-16T00:16:46.159Z,12.70
2019-04-16T00:19:13.132Z,12.70
2019-04-16T00:22:11.549Z,12.70
2019-04-16T00:24:39.477Z,12.70
2019-04-16T00:27:07.713Z,12.40
2019-04-16T00:29:34.362Z,12.60
2019-04-16T00:32:25.913Z,12.60
2019-04-16T00:34:51.677Z,12.60
2019-04-16T00:37:20.762Z,12.60
2019-04-16T00:39:46.737Z,12.50
2019-04-16T00:42:13.473Z,12.50
2019-04-16T00:44:40.472Z,12.50
2019-04-16T00:47:07.155Z,12.50
2019-04-16T00:49:37.724Z,12.40
2019-04-16T00:52:06.755Z,12.40
2019-04-16T00:54:32.102Z,12.40
2019-04-16T00:56:58.734Z,12.40
2019-04-16T00:59:25.734Z,12.40
2019-04-16T01:01:52.318Z,12.30
2019-04-16T01:04:18.901Z,12.30
2019-04-16T01:06:45.486Z,11.90
2019-04-16T01:09:13.290Z,12.30
2019-04-16T01:11:39.852Z,12.30
2019-04-16T01:14:06.741Z,12.20
2019-04-16T01:16:33.611Z,12.20
2019-04-16T01:19:00.188Z,12.20
2019-04-16T01:21:26.786Z,12.20
2019-04-16T01:23:53.338Z,12.10
2019-04-16T01:26:19.892Z,12.10
2019-04-16T01:28:53.065Z,12.10
2019-04-16T01:31:44.882Z,12.10
2019-04-16T01:34:30.940Z,12.10
2019-04-16T01:37:13.856Z,12.00
2019-04-16T01:39:41.026Z,12.00
2019-04-16T01:42:07.618Z,12.00
2019-04-16T01:44:34.255Z,12.00
2019-04-16T01:47:03.354Z,11.90
2019-04-16T01:49:29.209Z,11.90
2019-04-16T01:51:55.780Z,11.90
2019-04-16T01:54:22.921Z,11.80
2019-04-16T01:56:50.289Z,11.90
2019-04-16T01:59:16.901Z,11.90
2019-04-16T02:01:44.254Z,11.80
2019-04-16T02:04:11.067Z,11.80
2019-04-16T02:06:37.937Z,11.80
2019-04-16T02:09:06.926Z,11.80
2019-04-16T02:11:33.542Z,11.80
2019-04-16T02:14:00.736Z,11.70
2019-04-16T02:16:27.353Z,11.70
2019-04-16T02:18:54.210Z,11.70
2019-04-16T02:21:22.745Z,11.70
2019-04-16T02:23:49.345Z,11.70
2019-04-16T02:26:16.059Z,11.60
2019-04-16T02:28:42.601Z,11.60
2019-04-16T02:31:14.575Z,11.60
2019-04-16T02:33:37.827Z,11.60
2019-04-16T02:36:04.490Z,11.60
2019-04-16T02:38:31.746Z,11.60
2019-04-16T02:40:58.683Z,11.50
2019-04-16T02:43:25.243Z,11.50
2019-04-16T02:45:56.774Z,11.50
2019-04-16T02:48:20.699Z,11.50
2019-04-16T02:50:50.645Z,11.50
2019-04-16T02:53:58.857Z,11.40
2019-04-16T02:56:40.062Z,11.50
2019-04-16T02:59:13.383Z,11.40
2019-04-16T03:01:49.464Z,11.40
2019-04-16T03:04:19.996Z,11.40
2019-04-16T03:06:46.565Z,11.40
2019-04-16T03:09:13.135Z,11.40
2019-04-16T03:11:39.877Z,11.30
2019-04-16T03:14:06.450Z,11.30
2019-04-16T03:16:55.280Z,11.30
2019-04-16T03:19:26.740Z,11.30
2019-04-16T03:21:55.654Z,11.30
2019-04-16T03:24:21.981Z,11.20
2019-04-16T03:26:50.508Z,10.80
2019-04-16T03:29:17.027Z,11.20
2019-04-16T03:31:43.919Z,10.90
2019-04-16T03:34:10.795Z,11.20
2019-04-16T03:36:37.440Z,11.20
2019-04-16T03:39:12.298Z,11.20
2019-04-16T03:41:37.097Z,11.10
2019-04-16T03:44:05.020Z,11.10
2019-04-16T03:46:31.737Z,11.10
2019-04-16T03:48:58.308Z,11.10
2019-04-16T03:51:24.919Z,11.10
2019-04-16T03:53:51.676Z,11.00
2019-04-16T03:56:18.290Z,11.00
2019-04-16T03:58:44.910Z,11.00
2019-04-16T04:01:14.117Z,11.00
2019-04-16T04:03:40.372Z,11.00
2019-04-16T04:06:08.997Z,11.00
2019-04-16T04:08:35.464Z,10.90
2019-04-16T04:11:02.042Z,10.90
2019-04-16T04:13:28.628Z,10.90
2019-04-16T04:15:55.454Z,10.90
2019-04-16T04:18:23.612Z,10.90
2019-04-16T04:20:50.943Z,10.80
2019-04-16T04:23:25.426Z,10.80
2019-04-16T04:25:53.698Z,10.80
2019-04-16T04:28:20.656Z,10.80
2019-04-16T04:30:49.024Z,10.80
2019-04-16T04:33:33.902Z,10.80
2019-04-16T04:36:00.502Z,10.70
2019-04-16T04:38:27.160Z,10.70
2019-04-16T04:40:53.830Z,10.70
2019-04-16T04:43:20.574Z,10.60
2019-04-16T04:45:47.145Z,10.70
2019-04-16T04:48:14.154Z,10.60
2019-04-16T04:50:40.726Z,10.60
2019-04-16T04:53:09.463Z,10.40
2019-04-16T04:55:36.049Z,10.60
2019-04-16T04:58:03.373Z,10.60
2019-04-16T05:00:30.821Z,10.60
2019-04-16T05:02:57.495Z,10.60
2019-04-16T05:05:31.985Z,10.50
2019-04-16T05:08:00.000Z,10.50
2019-04-16T05:10:27.009Z,10.50
2019-04-16T05:12:53.821Z,10.50
2019-04-16T05:15:20.617Z,10.40
2019-04-16T05:17:47.182Z,10.40
2019-04-16T05:20:15.411Z,10.40
2019-04-16T05:22:42.413Z,10.40
2019-04-16T05:25:09.055Z,10.40
2019-04-16T05:27:40.233Z,10.40
2019-04-16T05:30:04.338Z,10.40
2019-04-16T05:32:36.901Z,10.30
2019-04-16T05:35:03.535Z,10.30
2019-04-16T05:37:31.274Z,10.30
2019-04-16T05:39:58.946Z,10.30
2019-04-16T05:42:26.405Z,10.30
2019-04-16T05:44:53.032Z,10.30
2019-04-16T05:47:19.791Z,10.20
2019-04-16T05:49:46.433Z,10.20
2019-04-16T05:52:13.206Z,10.20
2019-04-16T05:55:16.841Z,10.20
2019-04-16T05:57:41.892Z,10.20
2019-04-16T06:00:14.395Z,10.20
2019-04-16T06:02:42.302Z,10.20
2019-04-16T06:05:08.988Z,10.20
2019-04-16T06:07:37.977Z,10.20
2019-04-16T06:10:06.923Z,10.10
2019-04-16T06:12:48.205Z,10.10
2019-04-16T06:15:41.698Z,10.10
2019-04-16T06:18:29.092Z,10.10
2019-04-16T06:23:57.540Z,9.90
2019-04-16T06:26:31.104Z,10.20
2019-04-16T06:29:15.821Z,10.20
2019-04-16T06:32:11.840Z,10.30
2019-04-16T06:34:56.751Z,10.30
2019-04-16T06:37:33.058Z,10.30
2019-04-16T06:40:32.557Z,10.30
2019-04-16T06:43:07.782Z,10.30
2019-04-16T06:45:42.642Z,10.30
2019-04-16T06:48:13.163Z,10.30
2019-04-16T06:50:51.810Z,10.30
2019-04-16T06:53:31.047Z,10.30
2019-04-16T06:56:15.868Z,10.30
2019-04-16T06:58:51.217Z,10.30
2019-04-16T07:01:21.976Z,10.30
2019-04-16T07:03:58.532Z,10.40
2019-04-16T07:06:51.827Z,10.40
2019-04-16T07:09:26.185Z,10.40
2019-04-16T07:11:55.075Z,10.40
2019-04-16T07:14:21.897Z,10.40
2019-04-16T07:16:48.685Z,10.50
2019-04-16T07:19:17.367Z,10.50
2019-04-16T07:21:48.738Z,10.50
2019-04-16T07:24:13.795Z,10.50
2019-04-16T07:26:45.594Z,10.50
2019-04-16T07:29:22.292Z,10.60
2019-04-16T07:32:11.591Z,10.60
2019-04-16T07:35:03.886Z,10.70
2019-04-16T07:38:04.971Z,10.70
2019-04-16T07:40:52.923Z,10.70
2019-04-16T07:43:38.041Z,10.80
2019-04-16T07:46:14.467Z,10.80
2019-04-16T07:48:59.205Z,10.90
2019-04-16T07:51:36.976Z,10.90
2019-04-16T07:54:14.531Z,11.00
2019-04-16T07:56:43.358Z,11.00
2019-04-16T07:59:09.978Z,11.00
2019-04-16T08:01:36.659Z,11.10
2019-04-16T08:04:05.263Z,11.20
2019-04-16T08:06:32.003Z,11.00
2019-04-16T08:08:58.669Z,11.30
2019-04-16T08:11:25.446Z,11.30
2019-04-16T08:13:51.979Z,11.40
2019-04-16T08:16:19.106Z,11.40
2019-04-16T08:18:50.466Z,11.50
2019-04-16T08:21:17.574Z,11.50
2019-04-16T08:23:51.509Z,11.60
2019-04-16T08:26:16.104Z,11.60
2019-04-16T08:28:42.739Z,11.70
2019-04-16T08:31:13.927Z,11.80
2019-04-16T08:33:40.626Z,11.80
2019-04-16T08:36:07.355Z,11.90
2019-04-16T08:38:34.948Z,11.90
2019-04-16T08:41:01.950Z,12.00
2019-04-16T08:43:29.635Z,12.10
2019-04-16T08:45:58.918Z,12.10
2019-04-16T08:48:25.483Z,12.20
2019-04-16T08:50:52.070Z,12.30
2019-04-16T08:53:19.142Z,12.30
2019-04-16T08:55:45.976Z,12.40
2019-04-16T08:58:13.254Z,12.40
2019-04-16T09:00:46.022Z,12.50
2019-04-16T09:03:11.062Z,12.60
2019-04-16T09:05:41.340Z,12.40
2019-04-16T09:08:21.720Z,12.70
2019-04-16T09:10:44.874Z,12.80
2019-04-16T09:13:15.229Z,12.80
2019-04-16T09:15:42.033Z,12.90
2019-04-16T09:18:28.142Z,12.90
2019-04-16T09:20:54.747Z,13.00
2019-04-16T09:23:22.748Z,13.10
2019-04-16T09:26:22.562Z,13.10
2019-04-16T09:28:55.575Z,13.20
2019-04-16T09:31:42.766Z,13.30
2019-04-16T09:34:44.286Z,13.40
2019-04-16T09:37:28.682Z,13.40
2019-04-16T09:40:17.780Z,13.50
2019-04-16T09:42:40.646Z,13.60
2019-04-16T09:45:08.884Z,13.60
2019-04-16T09:47:35.479Z,13.40
2019-04-16T09:50:02.349Z,13.80
2019-04-16T09:52:29.002Z,13.90
2019-04-16T09:54:55.676Z,13.90
2019-04-16T09:57:24.370Z,14.00
2019-04-16T09:59:59.613Z,14.10
2019-04-16T10:02:29.720Z,14.10
2019-04-16T10:04:56.330Z,14.20
2019-04-16T10:07:24.110Z,14.30
2019-04-16T10:09:51.302Z,14.30
2019-04-16T10:14:50.835Z,14.40
2019-04-16T10:17:17.580Z,14.50
2019-04-16T10:19:44.172Z,14.60
2019-04-16T10:22:11.295Z,14.70
2019-04-16T10:24:56.738Z,14.70
2019-04-16T10:27:32.296Z,14.80
2019-04-16T10:29:58.969Z,14.90
2019-04-16T10:32:26.987Z,14.90
2019-04-16T10:34:53.661Z,15.00
2019-04-16T10:37:20.275Z,15.10
2019-04-16T10:40:21.669Z,15.10
2019-04-16T10:43:07.885Z,15.20
2019-04-16T10:45:57.264Z,15.30
2019-04-16T10:48:46.526Z,15.40
2019-04-16T10:51:47.760Z,15.50
2019-04-16T10:54:20.490Z,15.50
2019-04-16T10:57:10.007Z,15.60
2019-04-16T10:59:38.589Z,15.70
2019-04-16T11:02:29.529Z,15.80
2019-04-16T11:05:03.539Z,15.80
2019-04-16T11:07:30.391Z,15.90
2019-04-16T11:09:57.500Z,16.00
2019-04-16T11:12:24.234Z,16.10
2019-04-16T11:14:50.941Z,16.10
2019-04-16T11:17:19.485Z,16.20
2019-04-16T11:19:46.802Z,16.30
2019-04-16T11:22:13.922Z,16.30
2019-04-16T11:24:41.061Z,16.40
2019-04-16T11:27:08.123Z,16.40
2019-04-16T11:29:34.802Z,16.50
2019-04-16T11:32:02.194Z,16.60
2019-04-16T11:34:28.909Z,16.60
2019-04-16T11:36:58.298Z,16.70
2019-04-16T11:39:24.087Z,16.70
2019-04-16T11:41:50.809Z,16.80
2019-04-16T11:44:17.982Z,16.80
2019-04-16T11:46:44.718Z,16.90
2019-04-16T11:49:11.454Z,17.00
2019-04-16T11:51:40.439Z,17.00
2019-04-16T11:54:07.577Z,17.10
2019-04-16T11:56:35.965Z,17.10
2019-04-16T11:59:02.740Z,17.20
2019-04-16T12:01:55.091Z,17.30
2019-04-16T12:04:40.018Z,17.30
2019-04-16T12:07:27.142Z,17.30
2019-04-16T12:10:08.178Z,17.40
2019-04-16T12:13:14.185Z,17.50
2019-04-16T12:15:59.040Z,17.50
2019-04-16T12:18:33.040Z,17.60
2019-04-16T12:21:04.842Z,17.70
2019-04-16T12:24:05.938Z,17.70
2019-04-16T12:26:50.838Z,17.80
2019-04-16T12:29:45.798Z,17.80
2019-04-16T12:32:27.082Z,17.90
2019-04-16T12:35:22.592Z,17.90
2019-04-16T12:38:05.958Z,18.00
2019-04-16T12:40:45.042Z,18.00
2019-04-16T12:43:34.047Z,18.10
2019-04-16T12:46:10.793Z,18.20
2019-04-16T12:48:55.796Z,18.20
2019-04-16T12:51:32.602Z,18.20
2019-04-16T12:54:25.243Z,18.30
2019-04-16T12:57:06.974Z,18.30
2019-04-16T12:59:40.970Z,18.30
2019-04-16T13:02:25.399Z,18.40
2019-04-16T13:05:12.552Z,18.40
2019-04-16T13:07:54.334Z,18.50
2019-04-16T13:13:16.714Z,18.50
2019-04-16T13:15:51.369Z,18.50
2019-04-16T13:18:37.903Z,18.60
2019-04-16T13:21:19.107Z,18.60
2019-04-16T13:24:11.465Z,18.70
2019-04-16T13:26:45.181Z,18.70
2019-04-16T13:29:17.078Z,18.70
2019-04-16T13:31:44.131Z,18.70
2019-04-16T13:34:12.745Z,18.80
2019-04-16T13:36:39.512Z,18.80
2019-04-16T13:39:31.921Z,18.80
2019-04-16T13:41:58.815Z,18.80
2019-04-16T13:44:28.892Z,18.80
2019-04-16T13:46:55.602Z,18.80
2019-04-16T13:49:37.485Z,18.90
2019-04-16T13:52:04.197Z,18.90
2019-04-16T13:54:50.333Z,18.90
2019-04-16T13:57:19.086Z,18.90
2019-04-16T14:00:02.955Z,19.00
2019-04-16T14:02:40.382Z,19.00
2019-04-16T14:05:10.590Z,19.00
2019-04-16T14:07:37.711Z,19.10
2019-04-16T14:10:06.345Z,19.00
2019-04-16T14:12:41.974Z,19.10
2019-04-16T14:15:01.583Z,19.00
2019-04-16T14:17:28.193Z,19.10
2019-04-16T14:19:55.183Z,19.10
2019-04-16T14:25:01.349Z,19.10
2019-04-16T14:27:27.929Z,19.20
2019-04-16T14:29:54.826Z,19.00
2019-04-16T14:32:21.898Z,19.20
2019-04-16T14:35:04.151Z,19.20
2019-04-16T14:37:30.746Z,19.30
2019-04-16T14:40:06.405Z,19.20
2019-04-16T14:42:33.132Z,19.30
2019-04-16T14:45:08.687Z,19.30
2019-04-16T14:47:38.059Z,19.10
2019-04-16T14:50:04.148Z,19.30
2019-04-16T14:52:30.890Z,19.30
2019-04-16T14:55:09.333Z,19.30
2019-04-16T14:57:55.415Z,19.40
2019-04-16T15:00:31.950Z,19.40
2019-04-16T15:03:04.302Z,19.40
2019-04-16T15:05:49.225Z,19.40
2019-04-16T15:08:37.099Z,19.50
2019-04-16T15:11:29.251Z,19.40
2019-04-16T15:14:13.042Z,19.50
2019-04-16T15:16:59.750Z,19.50
2019-04-16T15:19:46.894Z,19.50
2019-04-16T15:22:35.969Z,19.50
2019-04-16T15:25:20.866Z,19.50
2019-04-16T15:28:05.946Z,19.50
2019-04-16T15:30:52.571Z,19.50
2019-04-16T15:33:41.335Z,19.60
2019-04-16T15:36:19.530Z,19.50
2019-04-16T15:39:08.351Z,19.60
2019-04-16T15:41:54.595Z,19.60
2019-04-16T15:44:32.051Z,19.60
2019-04-16T15:47:03.700Z,19.60
2019-04-16T15:49:43.682Z,19.60
2019-04-16T15:52:29.737Z,19.60
2019-04-16T15:55:24.234Z,19.60
2019-04-16T15:57:55.061Z,19.60
2019-04-16T16:00:47.035Z,19.60
2019-04-16T16:03:31.694Z,19.60
2019-04-16T16:06:16.873Z,19.60
2019-04-16T16:09:15.531Z,19.60
2019-04-16T16:11:56.631Z,19.60
2019-04-16T16:14:23.285Z,19.60
2019-04-16T16:16:51.699Z,19.60
2019-04-16T16:19:18.995Z,19.50
2019-04-16T16:21:45.759Z,19.60
2019-04-16T16:24:12.358Z,19.60
2019-04-16T16:26:38.982Z,19.60
2019-04-16T16:29:05.639Z,19.50
2019-04-16T16:31:35.731Z,19.50
2019-04-16T16:34:02.481Z,19.60
2019-04-16T16:36:29.261Z,19.60
2019-04-16T16:38:56.324Z,19.60
2019-04-16T16:41:23.307Z,19.60
2019-04-16T16:43:51.737Z,19.50
2019-04-16T16:46:55.661Z,19.50
2019-04-16T16:49:09.454Z,19.50
2019-04-16T16:51:38.572Z,19.50
2019-04-16T16:54:15.990Z,19.50
2019-04-16T16:57:05.947Z,19.50
2019-04-16T16:59:38.256Z,19.50
2019-04-16T17:02:18.244Z,19.30
2019-04-16T17:04:46.891Z,19.40
2019-04-16T17:07:17.372Z,19.40
2019-04-16T17:09:43.107Z,19.40
2019-04-16T17:12:10.150Z,19.40
2019-04-16T17:14:38.045Z,19.30
2019-04-16T17:17:14.334Z,19.30
2019-04-16T17:19:34.228Z,19.30
2019-04-16T17:22:00.994Z,19.30
2019-04-16T17:24:28.104Z,19.30
2019-04-16T17:26:55.061Z,19.20
2019-04-16T17:29:21.614Z,19.20
2019-04-16T17:31:48.883Z,19.20
2019-04-16T17:34:15.984Z,19.20
2019-04-16T17:36:43.707Z,19.20
2019-04-16T17:39:10.927Z,19.10
2019-04-16T17:41:43.235Z,19.10
2019-04-16T17:44:32.261Z,19.10
2019-04-16T17:47:31.875Z,19.10
2019-04-16T17:50:02.548Z,19.00
2019-04-16T17:52:41.515Z,19.00
2019-04-16T17:55:29.805Z,19.00
2019-04-16T17:58:00.089Z,19.00
2019-04-16T18:00:53.455Z,18.90
2019-04-16T18:03:37.120Z,18.90
2019-04-16T18:06:23.363Z,18.90
2019-04-16T18:09:10.620Z,18.80
2019-04-16T18:12:12.143Z,18.80
2019-04-16T18:15:16.610Z,18.70
2019-04-16T18:18:02.119Z,18.70
2019-04-16T18:20:57.284Z,18.70
2019-04-16T18:23:39.743Z,18.70
2019-04-16T18:26:24.916Z,18.60
2019-04-16T18:29:17.009Z,18.60
2019-04-16T18:31:47.442Z,18.60
2019-04-16T18:34:22.807Z,18.50
2019-04-16T18:37:08.912Z,18.50
2019-04-16T18:39:41.299Z,18.40
2019-04-16T18:42:21.510Z,18.40
2019-04-16T18:44:59.230Z,18.30
2019-04-16T18:47:41.855Z,18.30
2019-04-16T18:50:12.273Z,18.30
2019-04-16T18:52:39.130Z,18.20
2019-04-16T18:55:05.937Z,18.20
2019-04-16T18:57:35.535Z,18.20
2019-04-16T19:00:01.050Z,18.10
2019-04-16T19:02:28.785Z,18.10
2019-04-16T19:04:55.505Z,18.00
2019-04-16T19:07:22.429Z,18.00
2019-04-16T19:09:49.290Z,17.90
2019-04-16T19:12:15.902Z,17.90
2019-04-16T19:14:42.473Z,17.90
2019-04-16T19:17:09.102Z,17.80
2019-04-16T19:19:35.705Z,17.80
2019-04-16T19:22:02.986Z,17.80
2019-04-16T19:24:29.739Z,17.70
2019-04-16T19:26:56.996Z,17.70
2019-04-16T19:29:23.988Z,17.50
2019-04-16T19:31:54.913Z,17.60
2019-04-16T19:34:19.544Z,17.50
2019-04-16T19:36:47.308Z,17.50
2019-04-16T19:39:15.351Z,17.50
2019-04-16T19:41:53.002Z,17.40
2019-04-16T19:44:20.101Z,17.40
2019-04-16T19:46:52.277Z,17.40
2019-04-16T19:49:15.272Z,17.30
2019-04-16T19:51:42.045Z,17.30
2019-04-16T19:54:09.025Z,17.20
2019-04-16T19:56:35.622Z,17.20
2019-04-16T19:59:02.713Z,17.20
2019-04-16T20:01:29.343Z,17.10
2019-04-16T20:03:55.911Z,17.10
2019-04-16T20:06:25.469Z,17.00
2019-04-16T20:08:50.990Z,17.00
2019-04-16T20:11:20.492Z,16.90
2019-04-16T20:13:46.157Z,16.90
2019-04-16T20:16:15.872Z,16.90
2019-04-16T20:18:51.258Z,16.80
2019-04-16T20:21:13.575Z,16.80
2019-04-16T20:23:40.723Z,16.80
2019-04-16T20:26:07.819Z,16.70
2019-04-16T20:28:34.518Z,16.70
2019-04-16T20:31:03.965Z,16.70
2019-04-16T20:33:29.781Z,16.60
2019-04-16T20:35:56.457Z,16.60
2019-04-16T20:38:29.018Z,16.50
2019-04-16T20:40:52.111Z,16.50
2019-04-16T20:43:18.719Z,16.50
2019-04-16T20:45:45.325Z,16.40
2019-04-16T20:48:13.156Z,16.40
2019-04-16T20:50:39.822Z,16.40
2019-04-16T20:53:08.366Z,16.40
2019-04-16T20:55:34.972Z,16.30
2019-04-16T20:58:01.551Z,16.30
2019-04-16T21:00:29.787Z,16.30
2019-04-16T21:02:56.438Z,16.20
2019-04-16T21:05:23.126Z,16.20
2019-04-16T21:07:49.731Z,16.20
2019-04-16T21:10:16.409Z,16.10
2019-04-16T21:12:45.313Z,16.10
2019-04-16T21:15:11.418Z,16.10
2019-04-16T21:17:39.078Z,16.10
2019-04-16T21:20:06.073Z,16.10
2019-04-16T21:22:32.653Z,16.10
2019-04-16T21:24:59.634Z,16.00
2019-04-16T21:27:26.217Z,16.00
2019-04-16T21:29:53.697Z,16.00
2019-04-16T21:32:51.950Z,16.00
2019-04-16T21:35:24.252Z,15.90
2019-04-16T21:38:10.378Z,15.90
2019-04-16T21:40:37.021Z,15.90
2019-04-16T21:43:07.668Z,15.80
2019-04-16T21:45:32.289Z,15.80
2019-04-16T21:47:59.237Z,15.80
2019-04-16T21:50:25.756Z,15.70
2019-04-16T21:52:55.060Z,15.70
2019-04-16T21:55:20.839Z,15.70
2019-04-16T21:57:47.507Z,15.70
2019-04-16T22:00:48.463Z,15.70
2019-04-16T22:03:15.604Z,15.70
2019-04-16T22:05:42.258Z,15.60
2019-04-16T22:08:09.381Z,15.60
2019-04-16T22:10:35.965Z,15.60
2019-04-16T22:13:02.843Z,15.60
2019-04-16T22:15:29.811Z,15.60
2019-04-16T22:17:56.424Z,15.50
2019-04-16T22:20:23.027Z,15.50
2019-04-16T22:22:49.595Z,15.50
2019-04-16T22:25:16.213Z,15.40
2019-04-16T22:27:42.779Z,15.50
2019-04-16T22:30:09.365Z,15.40
2019-04-16T22:32:36.039Z,15.40
2019-04-16T22:35:02.613Z,15.40
2019-04-16T22:37:29.469Z,15.30
2019-04-16T22:40:01.448Z,15.30
2019-04-16T22:42:35.145Z,15.30
2019-04-16T22:45:39.732Z,15.30
2019-04-16T22:48:06.791Z,15.30
2019-04-16T22:50:34.890Z,15.20
2019-04-16T22:53:02.504Z,15.20
2019-04-16T22:55:29.146Z,15.20
2019-04-16T22:57:55.739Z,15.20
2019-04-16T23:00:47.625Z,15.20
2019-04-16T23:03:16.564Z,15.20
2019-04-16T23:06:05.504Z,15.20
2019-04-16T23:08:29.873Z,15.10
2019-04-16T23:10:56.668Z,15.10
2019-04-16T23:13:23.381Z,15.10
2019-04-16T23:15:49.928Z,15.10
2019-04-16T23:18:17.537Z,15.10
2019-04-16T23:20:45.245Z,15.10
2019-04-16T23:23:11.874Z,15.00
2019-04-16T23:25:38.470Z,15.00
2019-04-16T23:28:09.522Z,15.00
2019-04-16T23:30:33.918Z,15.00
2019-04-16T23:33:01.420Z,14.90
2019-04-16T23:35:28.562Z,14.90
2019-04-16T23:37:58.100Z,14.90
2019-04-16T23:40:23.506Z,14.90
2019-04-16T23:43:22.217Z,14.90
2019-04-16T23:46:11.315Z,14.80
2019-04-16T23:49:00.125Z,14.80
2019-04-16T23:51:34.982Z,14.80
2019-04-16T23:54:15.180Z,14.80
2019-04-16T23:56:45.464Z,14.80
2019-04-16T23:59:25.370Z,14.70
